Hauptseite
METAR-TAF:

METAR-TAF

Flughäfen :

Stettin, Polen

Flughafen Stettin-Goleniów

Breite: 53-35N, Länge: 014-54E, Höhe: 1 m

Beobachtung

Neuester Wetterbericht von vor 26 Minuten, um 08:30 UTC
Wind 6 kt aus Süd/Südost
Temperatur 9°C
Luftfeuchtigkeit 71%
Luftdruck 1007 hPa
Sichtweite 10 km oder mehr
keine Wolken unter 1500 m und keine Kumulonimbus oder Gewitterwolken

METAR: EPSC 270830Z 16006KT CAVOK 09/04 Q1007

Zeit: 09:56 (08:56 UTC)

Prognose

Neuester Wetterbericht von vor 3 Stunden und 26 Minuten, um 05:30 UTC
Gültige Prognose vom 27 um 06 UTC bis 28 um 06 UTC
Wind 10 kt aus Süd
Sichtweite 10 km oder mehr
Aufgelockert bewölkt in der Höhe von 4000 ft
Zeitweise
vom 28 um 04 UTC bis 28 um 06 UTC
Sichtweite: 4500 m
Durchbrochene Bewölkung in der Höhe von 1300 ft
Regen

TAF: EPSC 270530Z 2706/2806 18010KT 9999 SCT040 TEMPO 2804/2806 4500 RA BKN013

Wetterbeobachtungen und Prognosen von mehr als 4000 Flughäfen (METAR und TAF Bericht).

Die verfügbaren Stationen werden durch gelbe und rote Markierungen auf der Karte dargestellt.

Führen Sie die Maus auf sie, um den Namen der Station zu sehen.

Darauf klicken, um die Beobachtung von Wetterbeobachtungen und Prognosen zu sehen.

Um die Karte zu ändern : klicken Sie auf den grünen Tasten mit einem schwarzen Kreuz Zum Vergrößern, auf den grünen Button mit einem Gedankenstrich zu verkleinern, oder auf die grünen Pfeile für benachbarte Karten.


METAR-TAF: